createdAt,value
2022-12-23T00:00:51.403Z,944.04
2022-12-23T00:01:51.496Z,943.99
2022-12-23T00:02:51.553Z,944.05
2022-12-23T00:03:51.380Z,944.03
2022-12-23T00:04:51.275Z,944.00
2022-12-23T00:05:51.250Z,943.94
2022-12-23T00:06:51.227Z,944.02
2022-12-23T00:07:51.202Z,943.99
2022-12-23T00:08:51.192Z,944.00
2022-12-23T00:09:51.152Z,943.94
2022-12-23T00:10:51.121Z,943.93
2022-12-23T00:11:51.079Z,943.94
2022-12-23T00:12:51.056Z,943.90
2022-12-23T00:13:51.043Z,943.89
2022-12-23T00:14:51.027Z,943.84
2022-12-23T00:15:50.970Z,943.88
2022-12-23T00:16:51.375Z,943.84
2022-12-23T00:17:50.908Z,943.83
2022-12-23T00:18:50.891Z,943.86
2022-12-23T00:19:50.865Z,943.85
2022-12-23T00:20:50.818Z,943.81
2022-12-23T00:21:50.789Z,943.84
2022-12-23T00:22:50.762Z,943.85
2022-12-23T00:23:50.726Z,943.81
2022-12-23T00:24:50.702Z,943.79
2022-12-23T00:25:50.681Z,943.79
2022-12-23T00:26:50.641Z,943.74
2022-12-23T00:27:50.620Z,943.71
2022-12-23T00:28:50.607Z,943.74
2022-12-23T00:29:50.555Z,943.72
2022-12-23T00:30:50.530Z,943.75
2022-12-23T00:31:50.501Z,943.77
2022-12-23T00:32:50.451Z,943.77
2022-12-23T00:33:50.411Z,943.70
2022-12-23T00:34:50.387Z,943.72
2022-12-23T00:35:50.377Z,943.71
2022-12-23T00:36:50.334Z,943.62
2022-12-23T00:37:50.272Z,943.62
2022-12-23T00:38:50.241Z,943.66
2022-12-23T00:39:54.763Z,943.63
2022-12-23T00:40:51.188Z,943.62
2022-12-23T00:41:50.150Z,943.63
2022-12-23T00:42:50.112Z,943.69
2022-12-23T00:43:50.075Z,943.75
2022-12-23T00:44:50.047Z,943.56
2022-12-23T00:45:50.060Z,943.71
2022-12-23T00:46:49.974Z,943.66
2022-12-23T00:47:49.934Z,943.68
2022-12-23T00:48:49.912Z,943.63
2022-12-23T00:49:49.876Z,943.64
2022-12-23T00:50:49.879Z,943.63
2022-12-23T00:51:49.829Z,943.61
2022-12-23T00:52:49.797Z,943.62
2022-12-23T00:53:49.764Z,943.59
2022-12-23T00:54:49.738Z,943.61
2022-12-23T00:55:49.705Z,943.56
2022-12-23T00:56:49.686Z,943.61
2022-12-23T00:57:49.638Z,943.60
2022-12-23T00:58:49.606Z,943.59
2022-12-23T00:59:49.576Z,943.56
2022-12-23T01:00:49.557Z,943.54
2022-12-23T01:01:49.695Z,943.54
2022-12-23T01:02:49.625Z,943.59
2022-12-23T01:03:49.447Z,943.48
2022-12-23T01:04:49.415Z,943.48
2022-12-23T01:05:49.390Z,943.48
2022-12-23T01:06:49.352Z,943.49
2022-12-23T01:07:49.329Z,943.50
2022-12-23T01:08:49.289Z,943.49
2022-12-23T01:09:49.251Z,943.44
2022-12-23T01:10:49.219Z,943.46
2022-12-23T01:11:49.195Z,943.46
2022-12-23T01:12:49.175Z,943.43
2022-12-23T01:13:49.110Z,943.42
2022-12-23T01:14:49.105Z,943.39
2022-12-23T01:15:49.039Z,943.41
2022-12-23T01:16:49.077Z,943.39
2022-12-23T01:17:48.973Z,943.39
2022-12-23T01:18:48.929Z,943.39
2022-12-23T01:19:48.887Z,943.41
2022-12-23T01:20:48.853Z,943.43
2022-12-23T01:21:48.822Z,943.40
2022-12-23T01:22:48.819Z,943.44
2022-12-23T01:23:48.777Z,943.40
2022-12-23T01:24:48.744Z,943.37
2022-12-23T01:25:48.693Z,943.39
2022-12-23T01:26:48.671Z,943.36
2022-12-23T01:27:48.653Z,943.38
2022-12-23T01:28:55.619Z,943.39
2022-12-23T01:29:48.571Z,943.41
2022-12-23T01:30:48.534Z,943.36
2022-12-23T01:31:48.551Z,943.28
2022-12-23T01:32:48.458Z,943.35
2022-12-23T01:33:48.425Z,943.38
2022-12-23T01:34:48.389Z,943.37
2022-12-23T01:35:48.346Z,943.37
2022-12-23T01:36:48.309Z,943.36
2022-12-23T01:37:48.267Z,943.41
2022-12-23T01:38:48.257Z,943.42
2022-12-23T01:39:48.205Z,943.39
2022-12-23T01:40:48.183Z,943.40
2022-12-23T01:41:48.129Z,943.41
2022-12-23T01:42:48.117Z,943.36
2022-12-23T01:43:48.074Z,943.36
2022-12-23T01:44:48.066Z,943.37
2022-12-23T01:45:48.051Z,943.36
2022-12-23T01:46:48.009Z,943.39
2022-12-23T01:47:47.915Z,943.36
2022-12-23T01:48:47.883Z,943.40
2022-12-23T01:49:47.849Z,943.40
2022-12-23T01:50:47.812Z,943.35
2022-12-23T01:51:47.760Z,943.37
2022-12-23T01:52:47.729Z,943.34
2022-12-23T01:53:47.710Z,943.34
2022-12-23T01:54:47.705Z,943.34
2022-12-23T01:55:47.640Z,943.39
2022-12-23T01:56:47.609Z,943.35
2022-12-23T01:57:47.583Z,943.37
2022-12-23T01:58:47.551Z,943.34
2022-12-23T01:59:47.521Z,943.37
2022-12-23T02:00:47.503Z,943.33
2022-12-23T02:01:47.537Z,943.31
2022-12-23T02:02:47.550Z,943.27
2022-12-23T02:03:47.410Z,943.28
2022-12-23T02:04:47.374Z,943.28
2022-12-23T02:05:47.355Z,943.27
2022-12-23T02:06:47.303Z,943.26
2022-12-23T02:07:47.265Z,943.28
2022-12-23T02:08:47.242Z,943.32
2022-12-23T02:09:47.204Z,943.34
2022-12-23T02:10:47.189Z,943.31
2022-12-23T02:11:47.135Z,943.32
2022-12-23T02:12:47.119Z,943.35
2022-12-23T02:13:47.065Z,943.34
2022-12-23T02:14:47.042Z,943.41
2022-12-23T02:15:47.014Z,943.42
2022-12-23T02:16:47.020Z,943.40
2022-12-23T02:17:46.959Z,943.37
2022-12-23T02:18:46.925Z,943.35
2022-12-23T02:19:46.875Z,943.34
2022-12-23T02:20:46.878Z,943.33
2022-12-23T02:21:46.827Z,943.33
2022-12-23T02:22:46.792Z,943.32
2022-12-23T02:23:46.787Z,943.31
2022-12-23T02:24:46.737Z,943.36
2022-12-23T02:25:46.688Z,943.31
2022-12-23T02:26:46.673Z,943.31
2022-12-23T02:27:46.635Z,943.33
2022-12-23T02:28:46.600Z,943.28
2022-12-23T02:29:46.548Z,943.29
2022-12-23T02:30:46.543Z,943.36
2022-12-23T02:31:46.498Z,943.36
2022-12-23T02:32:46.470Z,943.30
2022-12-23T02:33:46.440Z,943.29
2022-12-23T02:34:46.399Z,943.30
2022-12-23T02:35:46.380Z,943.31
2022-12-23T02:36:46.366Z,943.28
2022-12-23T02:37:46.311Z,943.31
2022-12-23T02:38:46.299Z,943.29
2022-12-23T02:39:46.260Z,943.34
2022-12-23T02:40:46.242Z,943.28
2022-12-23T02:41:46.183Z,943.30
2022-12-23T02:42:46.144Z,943.34
2022-12-23T02:43:46.108Z,943.34
2022-12-23T02:44:46.080Z,943.34
2022-12-23T02:45:46.092Z,943.33
2022-12-23T02:46:46.064Z,943.28
2022-12-23T02:47:45.973Z,943.32
2022-12-23T02:48:45.952Z,943.28
2022-12-23T02:49:45.903Z,943.32
2022-12-23T02:50:45.881Z,943.26
2022-12-23T02:51:45.845Z,943.28
2022-12-23T02:52:45.824Z,943.33
2022-12-23T02:53:45.775Z,943.30
2022-12-23T02:54:45.723Z,943.30
2022-12-23T02:55:45.705Z,943.31
2022-12-23T02:56:45.663Z,943.30
2022-12-23T02:57:45.658Z,943.25
2022-12-23T02:58:45.628Z,943.28
2022-12-23T02:59:45.568Z,943.31
2022-12-23T03:00:45.529Z,943.28
2022-12-23T03:01:45.634Z,943.26
2022-12-23T03:02:45.775Z,943.28
2022-12-23T03:03:45.484Z,943.30
2022-12-23T03:04:45.420Z,943.34
2022-12-23T03:05:45.375Z,943.31
2022-12-23T03:06:45.338Z,943.31
2022-12-23T03:07:45.308Z,943.30
2022-12-23T03:08:45.294Z,943.32
2022-12-23T03:09:45.247Z,943.29
2022-12-23T03:10:45.215Z,943.33
2022-12-23T03:11:45.186Z,943.30
2022-12-23T03:12:45.135Z,943.27
2022-12-23T03:13:45.129Z,943.27
2022-12-23T03:14:45.068Z,943.31
2022-12-23T03:15:45.058Z,943.36
2022-12-23T03:16:45.022Z,943.32
2022-12-23T03:17:44.979Z,943.35
2022-12-23T03:18:44.969Z,943.30
2022-12-23T03:19:44.919Z,943.26
2022-12-23T03:20:44.900Z,943.26
2022-12-23T03:21:44.871Z,943.27
2022-12-23T03:22:44.839Z,943.30
2022-12-23T03:23:46.314Z,943.25
2022-12-23T03:24:44.790Z,943.25
2022-12-23T03:25:44.751Z,943.27
2022-12-23T03:26:44.731Z,943.25
2022-12-23T03:27:44.701Z,943.27
2022-12-23T03:28:44.681Z,943.28
2022-12-23T03:29:44.664Z,943.30
2022-12-23T03:30:44.644Z,943.31
2022-12-23T03:31:44.571Z,943.36
2022-12-23T03:32:44.542Z,943.34
2022-12-23T03:33:44.532Z,943.27
2022-12-23T03:34:44.500Z,943.30
2022-12-23T03:35:44.495Z,943.24
2022-12-23T03:36:44.451Z,943.29
2022-12-23T03:37:44.422Z,943.32
2022-12-23T03:38:44.402Z,943.27
2022-12-23T03:39:44.377Z,943.29
2022-12-23T03:40:44.356Z,943.31
2022-12-23T03:41:44.331Z,943.29
2022-12-23T03:42:44.294Z,943.30
2022-12-23T03:43:50.167Z,943.35
2022-12-23T03:45:10.754Z,943.33
2022-12-23T03:45:45.225Z,943.37
2022-12-23T03:46:44.257Z,943.39
2022-12-23T03:47:44.166Z,943.38
2022-12-23T03:48:44.143Z,943.43
2022-12-23T03:49:44.104Z,943.42
2022-12-23T03:50:44.117Z,943.44
2022-12-23T03:51:44.067Z,943.48
2022-12-23T03:52:44.030Z,943.48
2022-12-23T03:53:44.018Z,943.47
2022-12-23T03:54:43.986Z,943.51
2022-12-23T03:55:43.958Z,943.45
2022-12-23T03:56:43.924Z,943.51
2022-12-23T03:57:43.897Z,943.52
2022-12-23T03:58:43.878Z,943.49
2022-12-23T03:59:43.843Z,943.58
2022-12-23T04:00:43.809Z,943.53
2022-12-23T04:01:43.901Z,943.56
2022-12-23T04:02:43.910Z,943.61
2022-12-23T04:03:43.800Z,943.58
2022-12-23T04:04:43.710Z,943.55
2022-12-23T04:05:43.689Z,943.56
2022-12-23T04:06:43.672Z,943.65
2022-12-23T04:07:43.639Z,943.60
2022-12-23T04:08:43.613Z,943.58
2022-12-23T04:09:43.602Z,943.59
2022-12-23T04:10:43.551Z,943.56
2022-12-23T04:11:43.540Z,943.56
2022-12-23T04:12:43.493Z,943.56
2022-12-23T04:13:43.459Z,943.54
2022-12-23T04:14:43.448Z,943.51
2022-12-23T04:15:43.518Z,943.52
2022-12-23T04:16:43.391Z,943.51
2022-12-23T04:17:43.360Z,943.53
2022-12-23T04:18:43.376Z,943.53
2022-12-23T04:19:43.307Z,943.53
2022-12-23T04:20:43.265Z,943.52
2022-12-23T04:21:43.252Z,943.52
2022-12-23T04:22:43.214Z,943.49
2022-12-23T04:23:43.183Z,943.52
2022-12-23T04:24:43.168Z,943.53
2022-12-23T04:25:43.134Z,943.53
2022-12-23T04:26:43.115Z,943.56
2022-12-23T04:27:43.095Z,943.56
2022-12-23T04:28:43.062Z,943.54
2022-12-23T04:29:43.042Z,943.58
2022-12-23T04:30:43.030Z,943.57
2022-12-23T04:31:43.066Z,943.57
2022-12-23T04:32:42.977Z,943.54
2022-12-23T04:33:42.926Z,943.59
2022-12-23T04:34:42.879Z,943.54
2022-12-23T04:35:42.867Z,943.51
2022-12-23T04:36:42.828Z,943.48
2022-12-23T04:37:42.788Z,943.53
2022-12-23T04:38:42.815Z,943.54
2022-12-23T04:39:42.742Z,943.55
2022-12-23T04:40:42.699Z,943.57
2022-12-23T04:41:42.688Z,943.58
2022-12-23T04:42:42.634Z,943.56
2022-12-23T04:43:44.383Z,943.56
2022-12-23T04:44:42.579Z,943.59
2022-12-23T04:45:42.560Z,943.61
2022-12-23T04:46:42.621Z,943.60
2022-12-23T04:47:42.490Z,943.62
2022-12-23T04:48:42.450Z,943.66
2022-12-23T04:49:42.431Z,943.67
2022-12-23T04:50:42.391Z,943.70
2022-12-23T04:51:42.360Z,943.72
2022-12-23T04:52:42.328Z,943.77
2022-12-23T04:53:42.310Z,943.72
2022-12-23T04:54:45.707Z,943.74
2022-12-23T04:55:42.253Z,943.75
2022-12-23T04:56:42.221Z,943.75
2022-12-23T04:57:42.200Z,943.75
2022-12-23T04:58:42.153Z,943.73
2022-12-23T04:59:42.141Z,943.80
2022-12-23T05:00:42.208Z,943.78
2022-12-23T05:01:42.252Z,943.78
2022-12-23T05:02:42.150Z,943.79
2022-12-23T05:03:42.013Z,943.80
2022-12-23T05:04:42.054Z,943.73
2022-12-23T05:05:41.995Z,943.71
2022-12-23T05:06:41.925Z,943.71
2022-12-23T05:07:41.883Z,943.69
2022-12-23T05:08:41.858Z,943.68
2022-12-23T05:09:41.832Z,943.64
2022-12-23T05:10:41.806Z,943.71
2022-12-23T05:11:42.364Z,943.64
2022-12-23T05:12:41.729Z,943.70
2022-12-23T05:13:41.701Z,943.64
2022-12-23T05:14:41.661Z,943.71
2022-12-23T05:15:41.656Z,943.69
2022-12-23T05:16:41.626Z,943.69
2022-12-23T05:17:41.557Z,943.70
2022-12-23T05:18:41.568Z,943.68
2022-12-23T05:19:41.503Z,943.67
2022-12-23T05:20:41.479Z,943.71
2022-12-23T05:21:41.438Z,943.71
2022-12-23T05:22:41.419Z,943.71
2022-12-23T05:23:41.388Z,943.72
2022-12-23T05:24:41.362Z,943.76
2022-12-23T05:25:41.397Z,943.75
2022-12-23T05:26:44.884Z,943.74
2022-12-23T05:27:42.287Z,943.83
2022-12-23T05:28:41.260Z,943.79
2022-12-23T05:29:41.219Z,943.83
2022-12-23T05:30:41.210Z,943.78
2022-12-23T05:31:41.212Z,943.77
2022-12-23T05:32:41.143Z,943.77
2022-12-23T05:33:41.190Z,943.78
2022-12-23T05:34:41.081Z,943.83
2022-12-23T05:35:41.081Z,943.83
2022-12-23T05:36:41.023Z,943.80
2022-12-23T05:37:41.001Z,943.77
2022-12-23T05:38:40.970Z,943.77
2022-12-23T05:39:40.941Z,943.81
2022-12-23T05:40:40.921Z,943.86
2022-12-23T05:41:40.871Z,943.83
2022-12-23T05:42:40.853Z,943.85
2022-12-23T05:43:40.823Z,943.83
2022-12-23T05:44:40.792Z,943.84
2022-12-23T05:45:40.843Z,943.85
2022-12-23T05:46:40.801Z,943.82
2022-12-23T05:47:40.716Z,943.85
2022-12-23T05:48:40.695Z,943.88
2022-12-23T05:49:40.684Z,943.87
2022-12-23T05:50:40.643Z,943.86
2022-12-23T05:51:40.634Z,943.87
2022-12-23T05:52:40.600Z,943.93
2022-12-23T05:53:40.557Z,943.88
2022-12-23T05:54:40.547Z,943.91
2022-12-23T05:55:40.524Z,943.99
2022-12-23T05:56:40.508Z,943.94
2022-12-23T05:57:40.467Z,943.96
2022-12-23T05:58:40.437Z,943.99
2022-12-23T05:59:40.416Z,943.98
2022-12-23T06:00:40.381Z,944.00
2022-12-23T06:01:40.416Z,943.97
2022-12-23T06:02:40.477Z,943.92
2022-12-23T06:03:40.419Z,943.94
2022-12-23T06:04:40.290Z,943.93
2022-12-23T06:05:40.267Z,943.92
2022-12-23T06:06:40.241Z,943.90
2022-12-23T06:07:40.211Z,943.88
2022-12-23T06:08:40.187Z,943.89
2022-12-23T06:09:40.129Z,943.90
2022-12-23T06:10:40.084Z,943.94
2022-12-23T06:11:40.059Z,943.95
2022-12-23T06:12:40.026Z,944.00
2022-12-23T06:13:39.960Z,944.02
2022-12-23T06:14:39.922Z,944.06
2022-12-23T06:15:39.901Z,944.01
2022-12-23T06:16:39.883Z,944.00
2022-12-23T06:17:39.825Z,943.98
2022-12-23T06:18:39.780Z,944.00
2022-12-23T06:19:39.730Z,944.00
2022-12-23T06:20:39.691Z,944.01
2022-12-23T06:21:39.653Z,944.02
2022-12-23T06:22:39.628Z,943.98
2022-12-23T06:23:39.581Z,943.99
2022-12-23T06:24:39.541Z,944.03
2022-12-23T06:25:39.532Z,944.02
2022-12-23T06:26:39.472Z,944.05
2022-12-23T06:27:39.444Z,944.01
2022-12-23T06:28:39.414Z,944.04
2022-12-23T06:29:39.364Z,944.09
2022-12-23T06:30:39.318Z,944.02
2022-12-23T06:31:39.318Z,944.06
2022-12-23T06:32:39.241Z,944.00
2022-12-23T06:33:39.249Z,944.01
2022-12-23T06:34:39.184Z,944.00
2022-12-23T06:35:39.178Z,943.97
2022-12-23T06:36:39.125Z,943.93
2022-12-23T06:37:39.085Z,943.93
2022-12-23T06:38:39.064Z,944.00
2022-12-23T06:39:39.027Z,944.00
2022-12-23T06:40:38.977Z,944.01
2022-12-23T06:41:38.939Z,943.98
2022-12-23T06:42:38.897Z,944.01
2022-12-23T06:43:38.871Z,944.06
2022-12-23T06:44:38.808Z,944.12
2022-12-23T06:45:38.811Z,944.18
2022-12-23T06:46:38.728Z,944.14
2022-12-23T06:47:38.687Z,944.16
2022-12-23T06:48:38.687Z,944.19
2022-12-23T06:49:38.620Z,944.27
2022-12-23T06:50:38.602Z,944.24
2022-12-23T06:51:38.556Z,944.25
2022-12-23T06:52:38.527Z,944.31
2022-12-23T06:53:38.479Z,944.30
2022-12-23T06:54:38.428Z,944.34
2022-12-23T06:55:38.398Z,944.31
2022-12-23T06:56:38.347Z,944.32
2022-12-23T06:57:38.328Z,944.32
2022-12-23T06:58:38.309Z,944.40
2022-12-23T06:59:38.265Z,944.38
2022-12-23T07:00:38.205Z,944.41
2022-12-23T07:01:38.262Z,944.38
2022-12-23T07:02:38.207Z,944.44
2022-12-23T07:03:38.152Z,944.49
2022-12-23T07:04:38.077Z,944.50
2022-12-23T07:05:38.084Z,944.53
2022-12-23T07:06:37.983Z,944.49
2022-12-23T07:07:37.941Z,944.53
2022-12-23T07:08:37.912Z,944.58
2022-12-23T07:09:37.892Z,944.59
2022-12-23T07:10:37.828Z,944.58
2022-12-23T07:11:37.781Z,944.62
2022-12-23T07:12:37.743Z,944.56
2022-12-23T07:13:37.712Z,944.65
2022-12-23T07:14:37.682Z,944.66
2022-12-23T07:15:37.654Z,944.57
2022-12-23T07:16:37.684Z,944.62
2022-12-23T07:17:37.565Z,944.64
2022-12-23T07:18:37.574Z,944.60
2022-12-23T07:19:37.462Z,944.58
2022-12-23T07:20:37.447Z,944.61
2022-12-23T07:21:37.385Z,944.60
2022-12-23T07:22:37.363Z,944.58
2022-12-23T07:23:37.315Z,944.63
2022-12-23T07:24:37.276Z,944.67
2022-12-23T07:25:37.255Z,944.73
2022-12-23T07:26:37.235Z,944.76
2022-12-23T07:27:37.153Z,944.81
2022-12-23T07:29:27.254Z,944.79
2022-12-23T07:30:27.420Z,944.81
2022-12-23T07:31:27.258Z,944.82
2022-12-23T07:32:27.158Z,944.85
2022-12-23T07:33:27.144Z,944.79
2022-12-23T07:34:27.124Z,944.97
2022-12-23T07:35:27.073Z,944.92
2022-12-23T07:36:27.027Z,944.92
2022-12-23T07:37:26.973Z,944.91
2022-12-23T07:38:26.956Z,944.96
2022-12-23T07:39:26.903Z,944.90
2022-12-23T07:40:27.008Z,944.98
2022-12-23T07:41:26.865Z,945.06
2022-12-23T07:42:45.041Z,944.99
2022-12-23T07:43:27.807Z,944.99
2022-12-23T07:44:26.787Z,945.06
2022-12-23T07:45:26.721Z,945.06
2022-12-23T07:46:26.776Z,944.97
2022-12-23T07:47:26.625Z,944.99
2022-12-23T07:48:26.616Z,944.99
2022-12-23T07:49:26.567Z,945.07
2022-12-23T07:50:26.606Z,944.99
2022-12-23T07:51:26.520Z,945.06
2022-12-23T07:52:26.599Z,945.10
2022-12-23T07:53:26.442Z,945.12
2022-12-23T07:54:26.404Z,945.06
2022-12-23T07:55:26.409Z,945.11
2022-12-23T07:56:26.401Z,945.11
2022-12-23T07:57:26.345Z,945.12
2022-12-23T07:58:26.282Z,945.15
2022-12-23T07:59:26.239Z,945.13
2022-12-23T08:00:26.268Z,945.16
2022-12-23T08:01:26.258Z,945.22
2022-12-23T08:02:26.375Z,945.18
2022-12-23T08:03:26.139Z,945.24
2022-12-23T08:04:26.081Z,945.14
2022-12-23T08:05:26.157Z,945.15
2022-12-23T08:06:25.992Z,945.15
2022-12-23T08:07:25.979Z,945.25
2022-12-23T08:08:25.932Z,945.22
2022-12-23T08:09:25.897Z,945.29
2022-12-23T08:10:25.912Z,945.21
2022-12-23T08:11:25.827Z,945.16
2022-12-23T08:12:25.830Z,945.20
2022-12-23T08:13:25.740Z,945.20
2022-12-23T08:14:25.703Z,945.19
2022-12-23T08:15:25.666Z,945.24
2022-12-23T08:16:25.691Z,945.27
2022-12-23T08:17:25.605Z,945.23
2022-12-23T08:18:25.586Z,945.20
2022-12-23T08:19:25.513Z,945.24
2022-12-23T08:20:25.567Z,945.33
2022-12-23T08:21:25.464Z,945.28
2022-12-23T08:22:25.442Z,945.22
2022-12-23T08:23:25.395Z,945.23
2022-12-23T08:24:25.367Z,945.21
2022-12-23T08:25:25.325Z,945.26
2022-12-23T08:26:25.287Z,945.29
2022-12-23T08:27:25.238Z,945.23
2022-12-23T08:28:25.236Z,945.29
2022-12-23T08:29:25.189Z,945.19
2022-12-23T08:30:25.177Z,945.25
2022-12-23T08:31:25.151Z,945.29
2022-12-23T08:32:25.167Z,945.33
2022-12-23T08:33:25.060Z,945.34
2022-12-23T08:34:25.027Z,945.35
2022-12-23T08:35:24.970Z,945.36
2022-12-23T08:36:24.957Z,945.37
2022-12-23T08:37:24.916Z,945.34
2022-12-23T08:38:24.872Z,945.35
2022-12-23T08:39:24.861Z,945.35
2022-12-23T08:40:24.829Z,945.34
2022-12-23T08:41:24.766Z,945.30
2022-12-23T08:42:24.716Z,945.35
2022-12-23T08:43:27.620Z,945.30
2022-12-23T08:44:25.651Z,945.29
2022-12-23T08:45:24.625Z,945.29
2022-12-23T08:46:24.679Z,945.32
2022-12-23T08:47:24.526Z,945.33
2022-12-23T08:48:24.508Z,945.32
2022-12-23T08:49:24.475Z,945.33
2022-12-23T08:50:24.422Z,945.32
2022-12-23T08:51:24.463Z,945.33
2022-12-23T08:52:24.367Z,945.33
2022-12-23T08:53:24.325Z,945.33
2022-12-23T08:54:24.333Z,945.38
2022-12-23T08:55:24.307Z,945.44
2022-12-23T08:56:24.257Z,945.35
2022-12-23T08:57:24.205Z,945.43
2022-12-23T08:58:24.172Z,945.44
2022-12-23T08:59:24.125Z,945.53
2022-12-23T09:00:24.156Z,945.51
2022-12-23T09:01:24.137Z,945.56
2022-12-23T09:02:24.136Z,945.62
2022-12-23T09:03:24.117Z,945.62
2022-12-23T09:04:23.984Z,945.64
2022-12-23T09:05:23.961Z,945.63
2022-12-23T09:06:28.996Z,945.72
2022-12-23T09:07:24.889Z,945.73
2022-12-23T09:08:23.859Z,945.77
2022-12-23T09:09:23.789Z,945.73
2022-12-23T09:10:23.755Z,945.80
2022-12-23T09:11:23.748Z,945.87
2022-12-23T09:12:23.698Z,945.88
2022-12-23T09:13:32.836Z,945.88
2022-12-23T09:14:24.663Z,945.87
2022-12-23T09:15:23.602Z,945.84
2022-12-23T09:16:23.708Z,945.84
2022-12-23T09:17:23.540Z,945.90
2022-12-23T09:18:23.509Z,945.89
2022-12-23T09:19:23.470Z,945.79
2022-12-23T09:20:23.464Z,945.80
2022-12-23T09:21:23.416Z,945.76
2022-12-23T09:22:23.400Z,945.85
2022-12-23T09:23:23.349Z,945.75
2022-12-23T09:24:23.359Z,945.80
2022-12-23T09:25:23.295Z,945.75
2022-12-23T09:26:23.250Z,945.81
2022-12-23T09:27:23.230Z,945.83
2022-12-23T09:28:23.208Z,945.82
2022-12-23T09:29:23.180Z,945.85
2022-12-23T09:30:23.142Z,945.81
2022-12-23T09:31:23.216Z,945.76
2022-12-23T09:32:23.055Z,945.74
2022-12-23T09:33:23.023Z,945.77
2022-12-23T09:34:22.988Z,945.66
2022-12-23T09:35:22.977Z,945.67
2022-12-23T09:36:22.927Z,945.67
2022-12-23T09:37:22.876Z,945.65
2022-12-23T09:38:22.845Z,945.62
2022-12-23T09:39:22.807Z,945.65
2022-12-23T09:40:22.796Z,945.65
2022-12-23T09:41:22.737Z,945.62
2022-12-23T09:42:22.710Z,945.61
2022-12-23T09:43:22.655Z,945.60
2022-12-23T09:44:22.628Z,945.63
2022-12-23T09:45:22.616Z,945.62
2022-12-23T09:46:22.623Z,945.57
2022-12-23T09:47:22.522Z,945.59
2022-12-23T09:48:22.486Z,945.58
2022-12-23T09:49:22.459Z,945.54
2022-12-23T09:50:22.426Z,945.55
2022-12-23T09:51:22.381Z,945.52
2022-12-23T09:52:22.409Z,945.53
2022-12-23T09:53:22.299Z,945.53
2022-12-23T09:54:22.303Z,945.52
2022-12-23T09:55:22.227Z,945.56
2022-12-23T09:56:22.190Z,945.52
2022-12-23T09:57:22.148Z,945.55
2022-12-23T09:58:22.132Z,945.56
2022-12-23T09:59:22.065Z,945.62
2022-12-23T10:00:22.031Z,945.58
2022-12-23T10:01:22.023Z,945.56
2022-12-23T10:02:22.108Z,945.51
2022-12-23T10:03:22.096Z,945.52
2022-12-23T10:04:22.004Z,945.43
2022-12-23T10:05:21.822Z,945.38
2022-12-23T10:06:21.828Z,945.35
2022-12-23T10:07:21.766Z,945.39
2022-12-23T10:08:21.739Z,945.37
2022-12-23T10:09:21.663Z,945.32
2022-12-23T10:10:21.635Z,945.32
2022-12-23T10:11:21.623Z,945.28
2022-12-23T10:12:27.385Z,945.33
2022-12-23T10:13:22.508Z,945.32
2022-12-23T10:14:21.479Z,945.37
2022-12-23T10:15:21.418Z,945.38
2022-12-23T10:16:21.497Z,945.38
2022-12-23T10:17:21.355Z,945.36
2022-12-23T10:18:21.297Z,945.36
2022-12-23T10:19:21.257Z,945.28
2022-12-23T10:20:21.236Z,945.33
2022-12-23T10:21:21.175Z,945.27
2022-12-23T10:22:21.157Z,945.30
2022-12-23T10:23:21.100Z,945.28
2022-12-23T10:24:21.070Z,945.27
2022-12-23T10:25:21.006Z,945.31
2022-12-23T10:26:20.980Z,945.32
2022-12-23T10:27:20.923Z,945.41
2022-12-23T10:28:20.888Z,945.49
2022-12-23T10:29:20.809Z,945.41
2022-12-23T10:30:51.360Z,945.45
2022-12-23T10:31:39.788Z,945.43
2022-12-23T10:32:21.725Z,945.40
2022-12-23T10:33:20.662Z,945.38
2022-12-23T10:34:20.617Z,945.35
2022-12-23T10:35:20.551Z,945.32
2022-12-23T10:36:20.596Z,945.37
2022-12-23T10:37:20.458Z,945.38
2022-12-23T10:38:20.446Z,945.36
2022-12-23T10:39:20.382Z,945.34
2022-12-23T10:40:20.352Z,945.33
2022-12-23T10:41:20.323Z,945.40
2022-12-23T10:42:20.268Z,945.44
2022-12-23T10:43:20.205Z,945.41
2022-12-23T10:44:20.205Z,945.42
2022-12-23T10:45:20.137Z,945.42
2022-12-23T10:46:20.126Z,945.45
2022-12-23T10:47:20.052Z,945.49
2022-12-23T10:48:20.026Z,945.47
2022-12-23T10:49:19.991Z,945.47
2022-12-23T10:50:19.975Z,945.53
2022-12-23T10:51:19.903Z,945.58
2022-12-23T10:52:19.867Z,945.60
2022-12-23T10:53:19.819Z,945.58
2022-12-23T10:54:19.812Z,945.54
2022-12-23T10:55:19.735Z,945.60
2022-12-23T10:56:19.725Z,945.56
2022-12-23T10:57:19.678Z,945.49
2022-12-23T10:58:19.616Z,945.44
2022-12-23T10:59:19.575Z,945.45
2022-12-23T11:00:19.550Z,945.46
2022-12-23T11:01:26.690Z,945.44
2022-12-23T11:02:20.615Z,945.43
2022-12-23T11:03:19.516Z,945.40
2022-12-23T11:04:19.393Z,945.45
2022-12-23T11:05:19.320Z,945.49
2022-12-23T11:06:19.280Z,945.56
2022-12-23T11:07:43.610Z,945.50
2022-12-23T11:08:20.180Z,945.48
2022-12-23T11:09:19.157Z,945.53
2022-12-23T11:10:19.113Z,945.48
2022-12-23T11:11:19.042Z,945.49
2022-12-23T11:12:18.987Z,945.46
2022-12-23T11:13:18.970Z,945.46
2022-12-23T11:14:18.920Z,945.42
2022-12-23T11:15:18.891Z,945.37
2022-12-23T11:16:18.919Z,945.37
2022-12-23T11:17:18.807Z,945.39
2022-12-23T11:18:18.741Z,945.40
2022-12-23T11:19:18.722Z,945.40
2022-12-23T11:20:18.706Z,945.34
2022-12-23T11:21:18.665Z,945.31
2022-12-23T11:22:18.601Z,945.30
2022-12-23T11:23:18.551Z,945.30
2022-12-23T11:24:18.501Z,945.29
2022-12-23T11:25:18.453Z,945.34
2022-12-23T11:26:18.463Z,945.27
2022-12-23T11:27:18.380Z,945.30
2022-12-23T11:28:18.325Z,945.27
2022-12-23T11:29:18.275Z,945.27
2022-12-23T11:30:18.245Z,945.25
2022-12-23T11:31:18.238Z,945.24
2022-12-23T11:32:18.187Z,945.26
2022-12-23T11:33:18.105Z,945.26
2022-12-23T11:34:18.093Z,945.26
2022-12-23T11:35:18.077Z,945.26
2022-12-23T11:36:17.966Z,945.32
2022-12-23T11:37:17.946Z,945.36
2022-12-23T11:38:17.875Z,945.32
2022-12-23T11:39:17.839Z,945.31
2022-12-23T11:40:17.797Z,945.34
2022-12-23T11:41:17.730Z,945.32
2022-12-23T11:42:17.701Z,945.25
2022-12-23T11:43:17.692Z,945.20
2022-12-23T11:44:17.598Z,945.25
2022-12-23T11:45:17.579Z,945.17
2022-12-23T11:46:17.618Z,945.19
2022-12-23T11:47:17.460Z,945.14
2022-12-23T11:48:17.431Z,945.11
2022-12-23T11:49:17.362Z,945.15
2022-12-23T11:50:17.318Z,945.14
2022-12-23T11:51:17.292Z,945.15
2022-12-23T11:52:17.262Z,945.17
2022-12-23T11:53:17.216Z,945.15
2022-12-23T11:54:17.167Z,945.11
2022-12-23T11:55:17.109Z,945.18
2022-12-23T11:56:17.230Z,945.26
2022-12-23T11:57:17.074Z,945.28
2022-12-23T11:58:17.045Z,945.26
2022-12-23T11:59:16.933Z,945.26
2022-12-23T12:00:16.890Z,945.24
2022-12-23T12:01:16.871Z,945.23
2022-12-23T12:02:16.843Z,945.18
2022-12-23T12:03:16.829Z,945.15
2022-12-23T12:04:16.717Z,945.18
2022-12-23T12:05:16.687Z,945.18
2022-12-23T12:06:16.635Z,945.19
2022-12-23T12:07:16.596Z,945.20
2022-12-23T12:08:16.577Z,945.22
2022-12-23T12:09:16.504Z,945.16
2022-12-23T12:10:16.487Z,945.19
2022-12-23T12:11:16.417Z,945.17
2022-12-23T12:12:16.390Z,945.17
2022-12-23T12:13:16.351Z,945.14
2022-12-23T12:14:16.281Z,945.16
2022-12-23T12:15:16.236Z,945.10
2022-12-23T12:16:16.214Z,945.12
2022-12-23T12:17:16.215Z,945.07
2022-12-23T12:18:16.120Z,945.12
2022-12-23T12:19:16.068Z,945.10
2022-12-23T12:20:16.007Z,945.03
2022-12-23T12:21:15.972Z,945.07
2022-12-23T12:22:15.919Z,945.00
2022-12-23T12:23:15.906Z,945.02
2022-12-23T12:24:18.743Z,944.98
2022-12-23T12:25:15.831Z,944.99
2022-12-23T12:26:15.735Z,945.01
2022-12-23T12:27:15.675Z,945.03
2022-12-23T12:28:15.649Z,945.01
2022-12-23T12:29:15.579Z,945.00